sensor_id;sensor_type;location;lat;lon;timestamp;temperature;humidity
30304;DHT22;17112;48.636;10.152;2022-09-09T00:04:26;15.70;64.60
30304;DHT22;17112;48.636;10.152;2022-09-09T00:09:21;15.70;64.30
30304;DHT22;17112;48.636;10.152;2022-09-09T00:12:10;15.70;64.10
30304;DHT22;17112;48.636;10.152;2022-09-09T00:17:06;15.60;64.10
30304;DHT22;17112;48.636;10.152;2022-09-09T00:19:49;15.60;64.30
30304;DHT22;17112;48.636;10.152;2022-09-09T00:22:27;15.50;64.30
30304;DHT22;17112;48.636;10.152;2022-09-09T00:25:17;15.50;64.60
30304;DHT22;17112;48.636;10.152;2022-09-09T00:27:46;15.50;64.20
30304;DHT22;17112;48.636;10.152;2022-09-09T00:30:16;15.50;64.30
30304;DHT22;17112;48.636;10.152;2022-09-09T00:32:46;15.40;64.30
30304;DHT22;17112;48.636;10.152;2022-09-09T00:37:38;15.40;64.60
30304;DHT22;17112;48.636;10.152;2022-09-09T00:40:18;15.30;64.60
30304;DHT22;17112;48.636;10.152;2022-09-09T00:51:38;15.30;64.60
30304;DHT22;17112;48.636;10.152;2022-09-09T00:54:13;15.30;64.70
30304;DHT22;17112;48.636;10.152;2022-09-09T00:57:19;15.20;64.90
30304;DHT22;17112;48.636;10.152;2022-09-09T00:59:52;15.20;65.70
30304;DHT22;17112;48.636;10.152;2022-09-09T01:02:31;15.20;64.80
30304;DHT22;17112;48.636;10.152;2022-09-09T01:08:02;15.20;66.20
30304;DHT22;17112;48.636;10.152;2022-09-09T01:10:51;15.10;65.30
30304;DHT22;17112;48.636;10.152;2022-09-09T01:13:27;15.10;66.40
30304;DHT22;17112;48.636;10.152;2022-09-09T01:15:57;15.10;65.80
30304;DHT22;17112;48.636;10.152;2022-09-09T01:18:29;15.10;65.30
30304;DHT22;17112;48.636;10.152;2022-09-09T01:28:51;15.00;65.10
30304;DHT22;17112;48.636;10.152;2022-09-09T01:31:31;15.00;65.30
30304;DHT22;17112;48.636;10.152;2022-09-09T01:33:58;15.00;65.70
30304;DHT22;17112;48.636;10.152;2022-09-09T01:36:41;14.90;65.20
30304;DHT22;17112;48.636;10.152;2022-09-09T01:39:08;14.90;65.80
30304;DHT22;17112;48.636;10.152;2022-09-09T01:41:34;14.90;65.10
30304;DHT22;17112;48.636;10.152;2022-09-09T01:44:00;14.80;65.00
30304;DHT22;17112;48.636;10.152;2022-09-09T01:46:28;14.80;65.20
30304;DHT22;17112;48.636;10.152;2022-09-09T01:48:55;14.80;65.50
30304;DHT22;17112;48.636;10.152;2022-09-09T01:51:22;14.80;65.80
30304;DHT22;17112;48.636;10.152;2022-09-09T01:53:48;14.70;65.80
30304;DHT22;17112;48.636;10.152;2022-09-09T01:56:35;14.70;65.80
30304;DHT22;17112;48.636;10.152;2022-09-09T02:07:10;14.70;66.00
30304;DHT22;17112;48.636;10.152;2022-09-09T02:09:40;14.70;65.70
30304;DHT22;17112;48.636;10.152;2022-09-09T02:12:13;14.70;65.60
30304;DHT22;17112;48.636;10.152;2022-09-09T02:14:42;14.60;65.70
30304;DHT22;17112;48.636;10.152;2022-09-09T02:17:15;14.60;65.50
30304;DHT22;17112;48.636;10.152;2022-09-09T02:19:52;14.60;65.60
30304;DHT22;17112;48.636;10.152;2022-09-09T02:22:22;14.60;65.70
30304;DHT22;17112;48.636;10.152;2022-09-09T02:24:51;14.50;65.60
30304;DHT22;17112;48.636;10.152;2022-09-09T02:27:21;14.50;65.60
30304;DHT22;17112;48.636;10.152;2022-09-09T02:29:48;14.50;65.70
30304;DHT22;17112;48.636;10.152;2022-09-09T02:32:19;14.40;65.70
30304;DHT22;17112;48.636;10.152;2022-09-09T02:34:57;14.40;65.70
30304;DHT22;17112;48.636;10.152;2022-09-09T02:37:29;14.40;66.10
30304;DHT22;17112;48.636;10.152;2022-09-09T02:39:55;14.40;65.80
30304;DHT22;17112;48.636;10.152;2022-09-09T02:42:21;14.30;65.80
30304;DHT22;17112;48.636;10.152;2022-09-09T02:44:47;14.40;66.10
30304;DHT22;17112;48.636;10.152;2022-09-09T02:47:16;14.30;66.00
30304;DHT22;17112;48.636;10.152;2022-09-09T02:55:10;14.30;66.60
30304;DHT22;17112;48.636;10.152;2022-09-09T02:57:37;14.30;66.30
30304;DHT22;17112;48.636;10.152;2022-09-09T03:00:04;14.30;66.30
30304;DHT22;17112;48.636;10.152;2022-09-09T03:02:30;14.30;66.50
30304;DHT22;17112;48.636;10.152;2022-09-09T03:04:56;14.30;66.30
30304;DHT22;17112;48.636;10.152;2022-09-09T03:07:22;14.30;66.40
30304;DHT22;17112;48.636;10.152;2022-09-09T03:09:47;14.30;66.40
30304;DHT22;17112;48.636;10.152;2022-09-09T03:12:13;14.30;66.40
30304;DHT22;17112;48.636;10.152;2022-09-09T03:14:39;14.20;66.30
30304;DHT22;17112;48.636;10.152;2022-09-09T03:17:05;14.20;66.30
30304;DHT22;17112;48.636;10.152;2022-09-09T03:19:31;14.20;66.50
30304;DHT22;17112;48.636;10.152;2022-09-09T03:21:57;14.20;66.70
30304;DHT22;17112;48.636;10.152;2022-09-09T03:24:24;14.20;66.80
30304;DHT22;17112;48.636;10.152;2022-09-09T03:26:50;14.20;66.90
30304;DHT22;17112;48.636;10.152;2022-09-09T03:29:16;14.20;67.00
30304;DHT22;17112;48.636;10.152;2022-09-09T03:31:43;14.20;67.10
30304;DHT22;17112;48.636;10.152;2022-09-09T03:34:08;14.20;67.10
30304;DHT22;17112;48.636;10.152;2022-09-09T03:36:34;14.20;67.20
30304;DHT22;17112;48.636;10.152;2022-09-09T03:39:00;14.20;67.20
30304;DHT22;17112;48.636;10.152;2022-09-09T03:41:26;14.30;67.30
30304;DHT22;17112;48.636;10.152;2022-09-09T03:43:53;14.30;67.30
30304;DHT22;17112;48.636;10.152;2022-09-09T03:46:20;14.20;67.30
30304;DHT22;17112;48.636;10.152;2022-09-09T03:48:46;14.20;67.30
30304;DHT22;17112;48.636;10.152;2022-09-09T03:51:12;14.30;68.20
30304;DHT22;17112;48.636;10.152;2022-09-09T03:53:38;14.30;67.60
30304;DHT22;17112;48.636;10.152;2022-09-09T03:56:05;14.30;67.60
30304;DHT22;17112;48.636;10.152;2022-09-09T03:58:33;14.30;67.80
30304;DHT22;17112;48.636;10.152;2022-09-09T04:01:07;14.30;67.70
30304;DHT22;17112;48.636;10.152;2022-09-09T04:03:39;14.30;68.10
30304;DHT22;17112;48.636;10.152;2022-09-09T04:06:05;14.30;67.80
30304;DHT22;17112;48.636;10.152;2022-09-09T04:08:33;14.40;68.00
30304;DHT22;17112;48.636;10.152;2022-09-09T04:10:59;14.40;68.20
30304;DHT22;17112;48.636;10.152;2022-09-09T04:13:27;14.50;68.40
30304;DHT22;17112;48.636;10.152;2022-09-09T04:15:54;14.50;68.40
30304;DHT22;17112;48.636;10.152;2022-09-09T04:18:20;14.50;68.50
30304;DHT22;17112;48.636;10.152;2022-09-09T04:20:48;14.50;68.40
30304;DHT22;17112;48.636;10.152;2022-09-09T04:23:14;14.60;68.50
30304;DHT22;17112;48.636;10.152;2022-09-09T04:25:47;14.60;68.30
30304;DHT22;17112;48.636;10.152;2022-09-09T04:28:14;14.60;68.30
30304;DHT22;17112;48.636;10.152;2022-09-09T04:30:40;14.60;68.00
30304;DHT22;17112;48.636;10.152;2022-09-09T04:33:07;14.60;68.00
30304;DHT22;17112;48.636;10.152;2022-09-09T04:35:33;14.60;68.30
30304;DHT22;17112;48.636;10.152;2022-09-09T04:37:59;14.60;68.40
30304;DHT22;17112;48.636;10.152;2022-09-09T04:40:25;14.60;68.70
30304;DHT22;17112;48.636;10.152;2022-09-09T04:42:51;14.60;68.90
30304;DHT22;17112;48.636;10.152;2022-09-09T04:45:16;14.60;69.30
30304;DHT22;17112;48.636;10.152;2022-09-09T04:47:43;14.60;69.60
30304;DHT22;17112;48.636;10.152;2022-09-09T04:50:09;14.60;69.70
30304;DHT22;17112;48.636;10.152;2022-09-09T04:52:35;14.60;69.70
30304;DHT22;17112;48.636;10.152;2022-09-09T04:55:01;14.60;69.60
30304;DHT22;17112;48.636;10.152;2022-09-09T04:57:27;14.70;69.80
30304;DHT22;17112;48.636;10.152;2022-09-09T04:59:54;14.70;70.00
30304;DHT22;17112;48.636;10.152;2022-09-09T05:02:19;14.70;70.10
30304;DHT22;17112;48.636;10.152;2022-09-09T05:04:45;14.70;70.10
30304;DHT22;17112;48.636;10.152;2022-09-09T05:07:11;14.80;70.10
30304;DHT22;17112;48.636;10.152;2022-09-09T05:09:37;14.80;70.20
30304;DHT22;17112;48.636;10.152;2022-09-09T05:12:02;14.80;70.30
30304;DHT22;17112;48.636;10.152;2022-09-09T05:14:29;14.90;70.50
30304;DHT22;17112;48.636;10.152;2022-09-09T05:16:55;14.90;70.60
30304;DHT22;17112;48.636;10.152;2022-09-09T05:19:21;14.90;70.60
30304;DHT22;17112;48.636;10.152;2022-09-09T05:21:47;15.00;70.70
30304;DHT22;17112;48.636;10.152;2022-09-09T05:24:13;15.00;70.80
30304;DHT22;17112;48.636;10.152;2022-09-09T05:26:39;15.00;70.90
30304;DHT22;17112;48.636;10.152;2022-09-09T05:29:04;15.10;70.90
30304;DHT22;17112;48.636;10.152;2022-09-09T05:31:31;15.10;70.90
30304;DHT22;17112;48.636;10.152;2022-09-09T05:33:58;15.10;70.90
30304;DHT22;17112;48.636;10.152;2022-09-09T05:36:24;15.20;70.80
30304;DHT22;17112;48.636;10.152;2022-09-09T05:38:50;15.20;71.50
30304;DHT22;17112;48.636;10.152;2022-09-09T05:41:16;15.20;70.80
30304;DHT22;17112;48.636;10.152;2022-09-09T05:43:43;15.30;70.70
30304;DHT22;17112;48.636;10.152;2022-09-09T05:46:19;15.20;70.60
30304;DHT22;17112;48.636;10.152;2022-09-09T05:48:46;15.30;70.90
30304;DHT22;17112;48.636;10.152;2022-09-09T05:51:15;15.30;70.70
30304;DHT22;17112;48.636;10.152;2022-09-09T05:53:42;15.30;70.80
30304;DHT22;17112;48.636;10.152;2022-09-09T05:56:13;15.40;70.80
30304;DHT22;17112;48.636;10.152;2022-09-09T05:58:41;15.40;71.00
30304;DHT22;17112;48.636;10.152;2022-09-09T06:01:30;15.40;71.00
30304;DHT22;17112;48.636;10.152;2022-09-09T06:03:56;15.40;71.70
30304;DHT22;17112;48.636;10.152;2022-09-09T06:06:25;15.40;70.80
30304;DHT22;17112;48.636;10.152;2022-09-09T06:08:56;15.50;71.00
30304;DHT22;17112;48.636;10.152;2022-09-09T06:11:28;15.50;70.80
30304;DHT22;17112;48.636;10.152;2022-09-09T06:13:56;15.60;71.00
30304;DHT22;17112;48.636;10.152;2022-09-09T06:16:24;15.60;70.70
30304;DHT22;17112;48.636;10.152;2022-09-09T06:18:52;15.60;70.80
30304;DHT22;17112;48.636;10.152;2022-09-09T06:21:26;15.70;70.80
30304;DHT22;17112;48.636;10.152;2022-09-09T06:23:52;15.70;70.70
30304;DHT22;17112;48.636;10.152;2022-09-09T06:28:54;15.70;71.00
30304;DHT22;17112;48.636;10.152;2022-09-09T06:31:24;15.80;70.60
30304;DHT22;17112;48.636;10.152;2022-09-09T06:33:52;15.80;71.00
30304;DHT22;17112;48.636;10.152;2022-09-09T06:36:20;15.80;70.80
30304;DHT22;17112;48.636;10.152;2022-09-09T06:38:47;15.80;71.00
30304;DHT22;17112;48.636;10.152;2022-09-09T06:41:14;15.90;71.10
30304;DHT22;17112;48.636;10.152;2022-09-09T06:43:40;15.90;71.30
30304;DHT22;17112;48.636;10.152;2022-09-09T06:48:38;16.00;71.80
30304;DHT22;17112;48.636;10.152;2022-09-09T06:51:12;16.10;71.70
30304;DHT22;17112;48.636;10.152;2022-09-09T06:53:38;16.20;72.00
30304;DHT22;17112;48.636;10.152;2022-09-09T06:56:29;16.40;72.00
30304;DHT22;17112;48.636;10.152;2022-09-09T06:58:56;16.50;72.40
30304;DHT22;17112;48.636;10.152;2022-09-09T07:01:28;16.70;71.80
30304;DHT22;17112;48.636;10.152;2022-09-09T07:03:55;16.80;71.50
30304;DHT22;17112;48.636;10.152;2022-09-09T07:06:26;17.00;71.30
30304;DHT22;17112;48.636;10.152;2022-09-09T07:08:56;17.10;70.60
30304;DHT22;17112;48.636;10.152;2022-09-09T07:11:25;17.20;70.20
30304;DHT22;17112;48.636;10.152;2022-09-09T07:13:52;17.30;70.00
30304;DHT22;17112;48.636;10.152;2022-09-09T07:16:20;17.40;69.70
30304;DHT22;17112;48.636;10.152;2022-09-09T07:18:46;17.40;69.40
30304;DHT22;17112;48.636;10.152;2022-09-09T07:21:13;17.50;69.40
30304;DHT22;17112;48.636;10.152;2022-09-09T07:23:40;17.50;69.20
30304;DHT22;17112;48.636;10.152;2022-09-09T07:26:17;17.60;69.30
30304;DHT22;17112;48.636;10.152;2022-09-09T07:28:45;17.70;69.40
30304;DHT22;17112;48.636;10.152;2022-09-09T07:31:24;17.80;69.50
30304;DHT22;17112;48.636;10.152;2022-09-09T07:33:51;17.90;69.60
30304;DHT22;17112;48.636;10.152;2022-09-09T07:36:22;18.10;69.40
30304;DHT22;17112;48.636;10.152;2022-09-09T07:38:56;18.20;69.40
30304;DHT22;17112;48.636;10.152;2022-09-09T07:41:25;18.40;69.40
30304;DHT22;17112;48.636;10.152;2022-09-09T07:43:51;18.60;69.30
30304;DHT22;17112;48.636;10.152;2022-09-09T07:46:20;18.80;69.20
30304;DHT22;17112;48.636;10.152;2022-09-09T07:48:50;19.00;69.00
30304;DHT22;17112;48.636;10.152;2022-09-09T07:51:28;19.20;68.50
30304;DHT22;17112;48.636;10.152;2022-09-09T07:53:57;19.40;68.20
30304;DHT22;17112;48.636;10.152;2022-09-09T07:56:24;19.60;68.30
30304;DHT22;17112;48.636;10.152;2022-09-09T07:58:51;19.90;68.10
30304;DHT22;17112;48.636;10.152;2022-09-09T08:01:26;20.00;67.70
30304;DHT22;17112;48.636;10.152;2022-09-09T08:03:55;20.30;67.10
30304;DHT22;17112;48.636;10.152;2022-09-09T08:06:25;20.40;66.80
30304;DHT22;17112;48.636;10.152;2022-09-09T08:08:52;20.70;66.70
30304;DHT22;17112;48.636;10.152;2022-09-09T08:11:21;20.80;65.90
30304;DHT22;17112;48.636;10.152;2022-09-09T08:13:49;20.90;65.40
30304;DHT22;17112;48.636;10.152;2022-09-09T08:16:20;21.00;64.90
30304;DHT22;17112;48.636;10.152;2022-09-09T08:18:49;21.00;64.50
30304;DHT22;17112;48.636;10.152;2022-09-09T08:21:18;21.10;64.20
30304;DHT22;17112;48.636;10.152;2022-09-09T08:23:46;21.20;64.90
30304;DHT22;17112;48.636;10.152;2022-09-09T08:26:17;21.20;64.70
30304;DHT22;17112;48.636;10.152;2022-09-09T08:28:43;21.30;64.60
30304;DHT22;17112;48.636;10.152;2022-09-09T08:31:30;21.40;65.00
30304;DHT22;17112;48.636;10.152;2022-09-09T08:33:56;21.60;64.60
30304;DHT22;17112;48.636;10.152;2022-09-09T08:36:24;21.80;64.70
30304;DHT22;17112;48.636;10.152;2022-09-09T08:38:53;22.00;64.10
30304;DHT22;17112;48.636;10.152;2022-09-09T08:44:10;22.30;62.80
30304;DHT22;17112;48.636;10.152;2022-09-09T08:53:16;22.60;61.80
30304;DHT22;17112;48.636;10.152;2022-09-09T08:58:30;22.80;60.60
30304;DHT22;17112;48.636;10.152;2022-09-09T09:11:43;23.30;57.10
30304;DHT22;17112;48.636;10.152;2022-09-09T09:14:21;23.30;58.20
30304;DHT22;17112;48.636;10.152;2022-09-09T09:16:58;23.20;57.80
30304;DHT22;17112;48.636;10.152;2022-09-09T09:19:25;23.20;57.90
30304;DHT22;17112;48.636;10.152;2022-09-09T09:24:35;23.10;57.20
30304;DHT22;17112;48.636;10.152;2022-09-09T09:27:32;23.10;55.80
30304;DHT22;17112;48.636;10.152;2022-09-09T09:30:00;23.00;56.50
30304;DHT22;17112;48.636;10.152;2022-09-09T09:32:30;23.10;57.30
30304;DHT22;17112;48.636;10.152;2022-09-09T09:34:58;23.20;58.20
30304;DHT22;17112;48.636;10.152;2022-09-09T09:37:29;23.30;57.00
30304;DHT22;17112;48.636;10.152;2022-09-09T09:40:14;23.40;58.00
30304;DHT22;17112;48.636;10.152;2022-09-09T09:42:54;23.60;56.90
30304;DHT22;17112;48.636;10.152;2022-09-09T09:45:31;23.80;56.70
30304;DHT22;17112;48.636;10.152;2022-09-09T09:48:03;24.00;56.20
30304;DHT22;17112;48.636;10.152;2022-09-09T09:50:30;24.10;56.00
30304;DHT22;17112;48.636;10.152;2022-09-09T09:53:04;24.30;55.40
30304;DHT22;17112;48.636;10.152;2022-09-09T09:55:32;24.40;53.80
30304;DHT22;17112;48.636;10.152;2022-09-09T09:58:06;24.40;53.90
30304;DHT22;17112;48.636;10.152;2022-09-09T10:00:33;24.40;52.70
30304;DHT22;17112;48.636;10.152;2022-09-09T10:03:01;24.30;53.00
30304;DHT22;17112;48.636;10.152;2022-09-09T10:05:29;24.30;53.50
30304;DHT22;17112;48.636;10.152;2022-09-09T10:08:12;24.20;53.70
30304;DHT22;17112;48.636;10.152;2022-09-09T10:13:23;24.30;53.00
30304;DHT22;17112;48.636;10.152;2022-09-09T10:40:34;24.60;49.70
30304;DHT22;17112;48.636;10.152;2022-09-09T10:48:35;24.50;51.40
30304;DHT22;17112;48.636;10.152;2022-09-09T10:53:36;24.60;51.50
30304;DHT22;17112;48.636;10.152;2022-09-09T10:56:16;24.70;51.00
30304;DHT22;17112;48.636;10.152;2022-09-09T10:59:38;24.90;49.10
30304;DHT22;17112;48.636;10.152;2022-09-09T11:02:13;25.10;49.90
30304;DHT22;17112;48.636;10.152;2022-09-09T11:04:44;25.30;49.40
30304;DHT22;17112;48.636;10.152;2022-09-09T11:07:14;25.50;49.10
30304;DHT22;17112;48.636;10.152;2022-09-09T11:09:49;25.70;47.30
30304;DHT22;17112;48.636;10.152;2022-09-09T11:12:19;25.80;48.10
30304;DHT22;17112;48.636;10.152;2022-09-09T11:14:59;26.00;47.70
30304;DHT22;17112;48.636;10.152;2022-09-09T11:17:35;26.20;43.80
30304;DHT22;17112;48.636;10.152;2022-09-09T11:20:05;26.20;44.40
30304;DHT22;17112;48.636;10.152;2022-09-09T11:22:37;26.10;44.50
30304;DHT22;17112;48.636;10.152;2022-09-09T11:25:14;26.00;44.30
30304;DHT22;17112;48.636;10.152;2022-09-09T11:30:18;25.80;45.30
30304;DHT22;17112;48.636;10.152;2022-09-09T11:38:32;26.00;45.50
30304;DHT22;17112;48.636;10.152;2022-09-09T11:41:06;26.10;44.20
30304;DHT22;17112;48.636;10.152;2022-09-09T11:43:40;26.20;45.00
30304;DHT22;17112;48.636;10.152;2022-09-09T11:46:06;26.20;44.10
30304;DHT22;17112;48.636;10.152;2022-09-09T11:48:57;26.30;45.90
30304;DHT22;17112;48.636;10.152;2022-09-09T11:51:28;26.40;44.10
30304;DHT22;17112;48.636;10.152;2022-09-09T11:53:55;26.50;43.20
30304;DHT22;17112;48.636;10.152;2022-09-09T11:56:42;26.60;42.80
30304;DHT22;17112;48.636;10.152;2022-09-09T11:59:31;26.60;42.40
30304;DHT22;17112;48.636;10.152;2022-09-09T12:02:12;26.60;39.70
30304;DHT22;17112;48.636;10.152;2022-09-09T12:05:10;26.50;40.50
30304;DHT22;17112;48.636;10.152;2022-09-09T12:07:56;26.20;40.70
30304;DHT22;17112;48.636;10.152;2022-09-09T12:10:28;26.10;41.70
30304;DHT22;17112;48.636;10.152;2022-09-09T12:12:55;25.90;41.20
30304;DHT22;17112;48.636;10.152;2022-09-09T12:15:26;25.70;41.30
30304;DHT22;17112;48.636;10.152;2022-09-09T12:17:56;25.60;42.10
30304;DHT22;17112;48.636;10.152;2022-09-09T12:23:23;25.50;41.80
30304;DHT22;17112;48.636;10.152;2022-09-09T12:29:09;25.60;41.40
30304;DHT22;17112;48.636;10.152;2022-09-09T12:34:39;25.50;42.60
30304;DHT22;17112;48.636;10.152;2022-09-09T12:37:16;25.50;41.60
30304;DHT22;17112;48.636;10.152;2022-09-09T12:39:49;25.60;40.30
30304;DHT22;17112;48.636;10.152;2022-09-09T12:42:20;25.60;40.20
30304;DHT22;17112;48.636;10.152;2022-09-09T12:45:03;25.70;39.90
30304;DHT22;17112;48.636;10.152;2022-09-09T12:50:33;25.80;38.60
30304;DHT22;17112;48.636;10.152;2022-09-09T12:53:10;26.00;37.80
30304;DHT22;17112;48.636;10.152;2022-09-09T12:55:50;26.00;39.50
30304;DHT22;17112;48.636;10.152;2022-09-09T12:58:17;26.10;38.60
30304;DHT22;17112;48.636;10.152;2022-09-09T13:00:52;26.20;39.20
30304;DHT22;17112;48.636;10.152;2022-09-09T13:03:20;26.30;38.80
30304;DHT22;17112;48.636;10.152;2022-09-09T13:05:49;26.30;39.30
30304;DHT22;17112;48.636;10.152;2022-09-09T13:08:16;26.40;39.30
30304;DHT22;17112;48.636;10.152;2022-09-09T13:10:56;26.50;38.80
30304;DHT22;17112;48.636;10.152;2022-09-09T13:13:27;26.70;38.70
30304;DHT22;17112;48.636;10.152;2022-09-09T13:15:57;26.80;39.00
30304;DHT22;17112;48.636;10.152;2022-09-09T13:18:27;26.90;38.00
30304;DHT22;17112;48.636;10.152;2022-09-09T13:20:54;26.80;38.80
30304;DHT22;17112;48.636;10.152;2022-09-09T13:23:27;26.60;39.10
30304;DHT22;17112;48.636;10.152;2022-09-09T13:25:55;26.50;39.60
30304;DHT22;17112;48.636;10.152;2022-09-09T13:28:23;26.30;40.10
30304;DHT22;17112;48.636;10.152;2022-09-09T13:31:36;26.30;40.70
30304;DHT22;17112;48.636;10.152;2022-09-09T13:34:29;26.30;40.00
30304;DHT22;17112;48.636;10.152;2022-09-09T13:37:06;26.20;40.20
30304;DHT22;17112;48.636;10.152;2022-09-09T13:39:36;26.00;39.60
30304;DHT22;17112;48.636;10.152;2022-09-09T13:42:03;25.80;39.20
30304;DHT22;17112;48.636;10.152;2022-09-09T13:44:34;25.60;40.20
30304;DHT22;17112;48.636;10.152;2022-09-09T13:47:22;25.40;40.70
30304;DHT22;17112;48.636;10.152;2022-09-09T13:49:51;25.20;41.00
30304;DHT22;17112;48.636;10.152;2022-09-09T13:52:18;25.10;41.30
30304;DHT22;17112;48.636;10.152;2022-09-09T13:54:51;25.00;41.20
30304;DHT22;17112;48.636;10.152;2022-09-09T13:57:19;24.90;40.70
30304;DHT22;17112;48.636;10.152;2022-09-09T13:59:46;24.90;41.30
30304;DHT22;17112;48.636;10.152;2022-09-09T14:02:12;24.90;41.80
30304;DHT22;17112;48.636;10.152;2022-09-09T14:04:38;24.80;41.70
30304;DHT22;17112;48.636;10.152;2022-09-09T14:07:11;24.80;41.70
30304;DHT22;17112;48.636;10.152;2022-09-09T14:09:37;24.70;41.80
30304;DHT22;17112;48.636;10.152;2022-09-09T14:12:02;24.70;41.60
30304;DHT22;17112;48.636;10.152;2022-09-09T14:14:28;24.60;41.40
30304;DHT22;17112;48.636;10.152;2022-09-09T14:16:54;24.50;41.90
30304;DHT22;17112;48.636;10.152;2022-09-09T14:19:20;24.40;41.70
30304;DHT22;17112;48.636;10.152;2022-09-09T14:21:45;24.40;41.80
30304;DHT22;17112;48.636;10.152;2022-09-09T14:24:11;24.30;42.30
30304;DHT22;17112;48.636;10.152;2022-09-09T14:26:37;24.40;42.70
30304;DHT22;17112;48.636;10.152;2022-09-09T14:29:03;24.50;42.40
30304;DHT22;17112;48.636;10.152;2022-09-09T14:31:29;24.60;42.50
30304;DHT22;17112;48.636;10.152;2022-09-09T14:33:55;24.70;42.00
30304;DHT22;17112;48.636;10.152;2022-09-09T14:36:20;24.80;41.70
30304;DHT22;17112;48.636;10.152;2022-09-09T14:38:46;25.00;41.70
30304;DHT22;17112;48.636;10.152;2022-09-09T14:41:16;25.20;41.80
30304;DHT22;17112;48.636;10.152;2022-09-09T14:43:42;25.30;41.30
30304;DHT22;17112;48.636;10.152;2022-09-09T14:46:11;25.40;41.40
30304;DHT22;17112;48.636;10.152;2022-09-09T14:48:37;25.60;41.30
30304;DHT22;17112;48.636;10.152;2022-09-09T14:51:10;25.70;41.00
30304;DHT22;17112;48.636;10.152;2022-09-09T14:53:38;26.00;41.50
30304;DHT22;17112;48.636;10.152;2022-09-09T14:56:09;26.30;41.30
30304;DHT22;17112;48.636;10.152;2022-09-09T14:58:35;26.60;40.80
30304;DHT22;17112;48.636;10.152;2022-09-09T15:01:06;26.90;40.10
30304;DHT22;17112;48.636;10.152;2022-09-09T15:03:31;27.20;40.80
30304;DHT22;17112;48.636;10.152;2022-09-09T15:05:57;27.50;40.20
30304;DHT22;17112;48.636;10.152;2022-09-09T15:08:24;27.80;39.40
30304;DHT22;17112;48.636;10.152;2022-09-09T15:10:50;28.10;38.20
30304;DHT22;17112;48.636;10.152;2022-09-09T15:13:15;28.20;38.00
30304;DHT22;17112;48.636;10.152;2022-09-09T15:15:42;28.20;37.00
30304;DHT22;17112;48.636;10.152;2022-09-09T15:18:09;28.00;36.60
30304;DHT22;17112;48.636;10.152;2022-09-09T15:20:34;27.80;36.80
30304;DHT22;17112;48.636;10.152;2022-09-09T15:23:02;27.50;37.20
30304;DHT22;17112;48.636;10.152;2022-09-09T15:25:28;27.10;37.20
30304;DHT22;17112;48.636;10.152;2022-09-09T15:27:54;26.80;37.60
30304;DHT22;17112;48.636;10.152;2022-09-09T15:30:21;26.50;37.80
30304;DHT22;17112;48.636;10.152;2022-09-09T15:32:47;26.20;38.00
30304;DHT22;17112;48.636;10.152;2022-09-09T15:35:12;26.00;38.30
30304;DHT22;17112;48.636;10.152;2022-09-09T15:37:38;25.70;38.40
30304;DHT22;17112;48.636;10.152;2022-09-09T15:40:04;25.50;38.70
30304;DHT22;17112;48.636;10.152;2022-09-09T15:42:30;25.40;39.30
30304;DHT22;17112;48.636;10.152;2022-09-09T15:44:55;25.30;39.40
30304;DHT22;17112;48.636;10.152;2022-09-09T15:47:22;25.20;39.50
30304;DHT22;17112;48.636;10.152;2022-09-09T15:49:47;25.20;40.00
30304;DHT22;17112;48.636;10.152;2022-09-09T15:52:13;25.20;40.80
30304;DHT22;17112;48.636;10.152;2022-09-09T15:54:39;25.40;41.00
30304;DHT22;17112;48.636;10.152;2022-09-09T15:57:07;25.70;40.20
30304;DHT22;17112;48.636;10.152;2022-09-09T15:59:35;25.90;39.50
30304;DHT22;17112;48.636;10.152;2022-09-09T16:02:01;26.00;39.00
30304;DHT22;17112;48.636;10.152;2022-09-09T16:04:28;26.10;39.00
30304;DHT22;17112;48.636;10.152;2022-09-09T16:07:03;26.20;39.20
30304;DHT22;17112;48.636;10.152;2022-09-09T16:09:30;26.30;38.80
30304;DHT22;17112;48.636;10.152;2022-09-09T16:11:57;26.50;38.70
30304;DHT22;17112;48.636;10.152;2022-09-09T16:14:24;26.80;38.50
30304;DHT22;17112;48.636;10.152;2022-09-09T16:16:50;27.10;38.40
30304;DHT22;17112;48.636;10.152;2022-09-09T16:19:16;27.40;37.90
30304;DHT22;17112;48.636;10.152;2022-09-09T16:21:44;27.70;37.50
30304;DHT22;17112;48.636;10.152;2022-09-09T16:24:12;28.00;37.50
30304;DHT22;17112;48.636;10.152;2022-09-09T16:26:41;28.30;36.30
30304;DHT22;17112;48.636;10.152;2022-09-09T16:29:09;28.60;35.50
30304;DHT22;17112;48.636;10.152;2022-09-09T16:31:34;28.60;35.10
30304;DHT22;17112;48.636;10.152;2022-09-09T16:34:00;28.30;34.60
30304;DHT22;17112;48.636;10.152;2022-09-09T16:36:30;28.10;34.20
30304;DHT22;17112;48.636;10.152;2022-09-09T16:38:57;27.70;34.60
30304;DHT22;17112;48.636;10.152;2022-09-09T16:41:24;27.40;35.20
30304;DHT22;17112;48.636;10.152;2022-09-09T16:43:58;27.00;35.80
30304;DHT22;17112;48.636;10.152;2022-09-09T16:46:25;26.60;35.80
30304;DHT22;17112;48.636;10.152;2022-09-09T16:48:52;26.30;36.60
30304;DHT22;17112;48.636;10.152;2022-09-09T16:51:22;26.00;37.50
30304;DHT22;17112;48.636;10.152;2022-09-09T16:53:52;25.70;38.10
30304;DHT22;17112;48.636;10.152;2022-09-09T16:56:23;25.50;38.90
30304;DHT22;17112;48.636;10.152;2022-09-09T16:58:53;25.20;39.40
30304;DHT22;17112;48.636;10.152;2022-09-09T17:01:24;25.00;39.50
30304;DHT22;17112;48.636;10.152;2022-09-09T17:03:56;24.80;40.00
30304;DHT22;17112;48.636;10.152;2022-09-09T17:06:22;24.50;41.00
30304;DHT22;17112;48.636;10.152;2022-09-09T17:08:54;24.30;41.40
30304;DHT22;17112;48.636;10.152;2022-09-09T17:11:20;24.00;41.90
30304;DHT22;17112;48.636;10.152;2022-09-09T17:13:46;23.70;42.10
30304;DHT22;17112;48.636;10.152;2022-09-09T17:16:15;23.50;42.50
30304;DHT22;17112;48.636;10.152;2022-09-09T17:18:41;23.30;43.00
30304;DHT22;17112;48.636;10.152;2022-09-09T17:21:09;23.10;43.80
30304;DHT22;17112;48.636;10.152;2022-09-09T17:23:36;22.90;44.00
30304;DHT22;17112;48.636;10.152;2022-09-09T17:26:05;22.70;44.30
30304;DHT22;17112;48.636;10.152;2022-09-09T17:28:31;22.50;44.70
30304;DHT22;17112;48.636;10.152;2022-09-09T17:31:00;22.40;45.20
30304;DHT22;17112;48.636;10.152;2022-09-09T17:33:31;22.20;46.00
30304;DHT22;17112;48.636;10.152;2022-09-09T17:36:02;22.10;45.80
30304;DHT22;17112;48.636;10.152;2022-09-09T17:38:28;21.90;46.00
30304;DHT22;17112;48.636;10.152;2022-09-09T17:41:03;21.80;46.40
30304;DHT22;17112;48.636;10.152;2022-09-09T17:43:29;21.70;47.00